METAR Data
IDs: Format: Raw Decoded Include TAF

Data at: 1349 UTC 26 Feb 2021

KI67 261335Z AUTO 02004KT 10SM CLR 00/M03 A3028 RMK AO1